createdAt,value
2023-05-14T00:01:33.098Z,12.70
2023-05-14T00:04:00.517Z,12.70
2023-05-14T00:06:27.584Z,12.70
2023-05-14T00:08:54.708Z,12.80
2023-05-14T00:11:21.797Z,12.80
2023-05-14T00:13:50.127Z,12.80
2023-05-14T00:16:17.296Z,12.90
2023-05-14T00:18:44.457Z,12.90
2023-05-14T00:21:11.665Z,12.90
2023-05-14T00:23:38.900Z,13.00
2023-05-14T00:26:06.070Z,13.00
2023-05-14T00:28:33.162Z,13.00
2023-05-14T00:31:00.470Z,13.00
2023-05-14T00:33:28.012Z,12.90
2023-05-14T00:35:55.123Z,12.90
2023-05-14T00:38:24.102Z,12.80
2023-05-14T00:40:51.384Z,12.70
2023-05-14T00:43:20.899Z,12.70
2023-05-14T00:45:53.939Z,12.70
2023-05-14T00:48:22.746Z,12.80
2023-05-14T00:50:51.106Z,12.80
2023-05-14T00:53:21.744Z,12.70
2023-05-14T00:55:50.682Z,12.80
2023-05-14T00:58:19.418Z,12.90
2023-05-14T01:00:46.586Z,12.90
2023-05-14T01:03:13.935Z,12.90
2023-05-14T01:06:00.895Z,12.90
2023-05-14T01:08:55.853Z,12.70
2023-05-14T01:11:40.340Z,12.80
2023-05-14T01:14:42.973Z,12.80
2023-05-14T01:17:13.474Z,12.80
2023-05-14T01:19:42.733Z,12.80
2023-05-14T01:22:11.006Z,12.80
2023-05-14T01:24:39.043Z,12.80
2023-05-14T01:27:20.141Z,12.80
2023-05-14T01:30:00.991Z,12.80
2023-05-14T01:32:29.519Z,12.80
2023-05-14T01:34:58.621Z,12.70
2023-05-14T01:37:28.089Z,12.70
2023-05-14T01:39:56.706Z,12.50
2023-05-14T01:42:23.934Z,12.40
2023-05-14T01:44:51.171Z,12.40
2023-05-14T01:47:18.429Z,12.40
2023-05-14T01:49:45.594Z,12.50
2023-05-14T01:52:12.641Z,12.50
2023-05-14T01:54:39.710Z,12.50
2023-05-14T01:57:06.827Z,12.50
2023-05-14T01:59:33.902Z,12.50
2023-05-14T02:02:01.124Z,12.50
2023-05-14T02:04:28.230Z,12.50
2023-05-14T02:06:55.375Z,12.50
2023-05-14T02:09:24.928Z,12.50
2023-05-14T02:11:52.113Z,12.40
2023-05-14T02:14:19.176Z,12.30
2023-05-14T02:16:46.531Z,12.20
2023-05-14T02:19:13.691Z,12.20
2023-05-14T02:21:40.775Z,12.20
2023-05-14T02:24:07.978Z,12.00
2023-05-14T02:26:35.549Z,11.90
2023-05-14T02:29:02.573Z,11.80
2023-05-14T02:31:29.735Z,11.60
2023-05-14T02:33:57.203Z,11.50
2023-05-14T02:36:24.208Z,11.30
2023-05-14T02:38:51.451Z,11.30
2023-05-14T02:41:18.583Z,11.10
2023-05-14T02:43:46.220Z,11.10
2023-05-14T02:46:14.299Z,11.00
2023-05-14T02:48:41.351Z,10.90
2023-05-14T02:51:08.456Z,10.90
2023-05-14T02:53:35.566Z,10.80
2023-05-14T02:56:02.878Z,10.80
2023-05-14T02:58:30.073Z,10.70
2023-05-14T03:00:57.210Z,10.70
2023-05-14T03:03:24.959Z,10.60
2023-05-14T03:05:52.803Z,10.50
2023-05-14T03:08:19.821Z,10.50
2023-05-14T03:10:46.914Z,10.40
2023-05-14T03:13:17.770Z,10.40
2023-05-14T03:15:45.177Z,10.40
2023-05-14T03:18:12.622Z,10.40
2023-05-14T03:20:39.944Z,10.30
2023-05-14T03:23:07.105Z,10.30
2023-05-14T03:25:34.543Z,10.30
2023-05-14T03:28:01.609Z,10.10
2023-05-14T03:30:28.925Z,10.00
2023-05-14T03:32:57.221Z,10.00
2023-05-14T03:35:24.310Z,10.00
2023-05-14T03:37:53.081Z,10.00
2023-05-14T03:40:21.516Z,10.00
2023-05-14T03:42:48.854Z,9.90
2023-05-14T03:45:16.630Z,9.90
2023-05-14T03:47:43.794Z,9.80
2023-05-14T03:50:11.813Z,9.70
2023-05-14T03:52:40.472Z,9.70
2023-05-14T03:55:08.976Z,9.70
2023-05-14T03:57:36.901Z,9.80
2023-05-14T04:00:07.685Z,9.80
2023-05-14T04:02:43.864Z,9.90
2023-05-14T04:05:11.447Z,10.00
2023-05-14T04:07:38.689Z,10.10
2023-05-14T04:10:06.860Z,10.20
2023-05-14T04:12:35.954Z,10.20
2023-05-14T04:15:04.198Z,10.30
2023-05-14T04:17:33.902Z,10.30
2023-05-14T04:20:02.053Z,10.20
2023-05-14T04:22:29.091Z,10.20
2023-05-14T04:24:56.096Z,10.30
2023-05-14T04:27:23.289Z,10.40
2023-05-14T04:29:50.958Z,10.60
2023-05-14T04:32:18.389Z,10.70
2023-05-14T04:34:46.938Z,10.90
2023-05-14T04:37:14.282Z,11.10
2023-05-14T04:39:41.548Z,11.30
2023-05-14T04:42:08.676Z,11.40
2023-05-14T04:44:36.347Z,11.60
2023-05-14T04:47:04.325Z,11.80
2023-05-14T04:49:31.567Z,11.90
2023-05-14T04:51:58.664Z,12.00
2023-05-14T04:54:25.775Z,12.10
2023-05-14T04:56:52.884Z,12.30
2023-05-14T04:59:19.884Z,12.50
2023-05-14T05:01:47.032Z,12.60
2023-05-14T05:04:14.182Z,12.60
2023-05-14T05:06:41.306Z,12.50
2023-05-14T05:09:09.524Z,12.70
2023-05-14T05:11:36.606Z,12.70
2023-05-14T05:14:03.702Z,12.90
2023-05-14T05:16:30.962Z,13.00
2023-05-14T05:18:58.206Z,13.20
2023-05-14T05:21:25.662Z,13.40
2023-05-14T05:23:52.707Z,13.50
2023-05-14T05:26:19.822Z,13.60
2023-05-14T05:28:46.918Z,13.60
2023-05-14T05:31:14.082Z,13.80
2023-05-14T05:33:41.472Z,13.90
2023-05-14T05:36:08.873Z,14.10
2023-05-14T05:38:35.991Z,14.20
2023-05-14T05:41:03.126Z,14.30
2023-05-14T05:43:30.144Z,14.30
2023-05-14T05:45:57.169Z,14.30
2023-05-14T05:48:24.444Z,14.40
2023-05-14T05:50:51.872Z,14.50
2023-05-14T05:53:18.955Z,14.50
2023-05-14T05:55:46.025Z,14.60
2023-05-14T05:58:15.779Z,14.80
2023-05-14T06:00:43.102Z,14.70
2023-05-14T06:03:11.903Z,14.40
2023-05-14T06:05:39.116Z,14.40
2023-05-14T06:08:06.594Z,14.50
2023-05-14T06:10:34.491Z,14.80
2023-05-14T06:13:01.816Z,14.70
2023-05-14T06:15:28.876Z,15.00
2023-05-14T06:17:56.043Z,15.30
2023-05-14T06:20:23.426Z,15.40
2023-05-14T06:22:50.698Z,15.70
2023-05-14T06:25:18.134Z,15.90
2023-05-14T06:27:45.376Z,15.90
2023-05-14T06:30:13.246Z,16.00
2023-05-14T06:32:40.427Z,16.10
2023-05-14T06:35:08.425Z,16.10
2023-05-14T06:37:35.533Z,16.20
2023-05-14T06:40:03.765Z,16.30
2023-05-14T06:42:30.831Z,16.50
2023-05-14T06:44:58.672Z,16.50
2023-05-14T06:47:25.824Z,16.20
2023-05-14T06:49:53.020Z,16.60
2023-05-14T06:52:20.115Z,16.90
2023-05-14T06:54:47.162Z,16.80
2023-05-14T06:57:14.172Z,16.90
2023-05-14T06:59:41.468Z,16.50
2023-05-14T07:02:08.564Z,16.50
2023-05-14T07:04:36.545Z,16.70
2023-05-14T07:07:03.983Z,17.10
2023-05-14T07:09:31.007Z,17.00
2023-05-14T07:11:58.183Z,17.10
2023-05-14T07:14:25.381Z,17.20
2023-05-14T07:16:52.540Z,17.10
2023-05-14T07:19:19.663Z,17.00
2023-05-14T07:21:46.855Z,17.10
2023-05-14T07:24:14.031Z,17.20
2023-05-14T07:26:41.474Z,17.60
2023-05-14T07:29:08.813Z,17.70
2023-05-14T07:31:36.317Z,17.80
2023-05-14T07:34:03.452Z,18.10
2023-05-14T07:36:30.942Z,18.10
2023-05-14T07:38:58.109Z,17.90
2023-05-14T07:41:25.145Z,18.00
2023-05-14T07:43:52.226Z,18.10
2023-05-14T07:46:19.361Z,18.20
2023-05-14T07:48:46.510Z,18.10
2023-05-14T07:51:13.651Z,18.00
2023-05-14T07:53:41.228Z,18.10
2023-05-14T07:56:08.895Z,18.50
2023-05-14T07:58:36.219Z,18.90
2023-05-14T08:01:07.112Z,18.70
2023-05-14T08:03:34.545Z,18.80
2023-05-14T08:06:01.704Z,18.70
2023-05-14T08:08:28.824Z,18.40
2023-05-14T08:10:55.958Z,18.70
2023-05-14T08:13:23.084Z,19.10
2023-05-14T08:15:50.617Z,19.30
2023-05-14T08:18:17.667Z,19.40
2023-05-14T08:20:44.772Z,19.20
2023-05-14T08:23:11.992Z,19.20
2023-05-14T08:25:39.223Z,19.00
2023-05-14T08:28:06.962Z,19.00
2023-05-14T08:30:34.407Z,19.40
2023-05-14T08:33:01.532Z,19.50
2023-05-14T08:35:28.714Z,19.80
2023-05-14T08:37:57.142Z,19.70
2023-05-14T08:40:24.450Z,19.50
2023-05-14T08:42:52.498Z,19.70
2023-05-14T08:45:34.032Z,19.90
2023-05-14T08:48:05.188Z,20.20
2023-05-14T08:50:32.855Z,19.80
2023-05-14T08:53:00.009Z,20.30
2023-05-14T08:55:28.348Z,20.20
2023-05-14T08:57:56.168Z,20.20
2023-05-14T09:00:23.712Z,20.10
2023-05-14T09:02:51.752Z,20.50
2023-05-14T09:05:20.133Z,21.00
2023-05-14T09:07:47.450Z,21.00
2023-05-14T09:10:16.442Z,20.90
2023-05-14T09:12:43.620Z,21.30
2023-05-14T09:15:11.095Z,21.50
2023-05-14T09:17:38.253Z,21.00
2023-05-14T09:20:06.970Z,20.90
2023-05-14T09:22:35.706Z,20.50
2023-05-14T09:25:12.277Z,20.70
2023-05-14T09:27:39.730Z,20.00
2023-05-14T09:30:12.299Z,19.90
2023-05-14T09:32:46.222Z,20.30
2023-05-14T09:35:19.722Z,20.50
2023-05-14T09:37:50.457Z,20.70
2023-05-14T09:40:21.404Z,21.00
2023-05-14T09:42:49.559Z,21.30
2023-05-14T09:45:17.554Z,21.10
2023-05-14T09:47:45.450Z,21.80
2023-05-14T09:50:13.385Z,21.70
2023-05-14T09:52:40.530Z,22.10
2023-05-14T09:55:08.358Z,22.10
2023-05-14T09:57:35.923Z,22.30
2023-05-14T10:00:03.986Z,22.40
2023-05-14T10:02:37.951Z,22.40
2023-05-14T10:05:07.226Z,22.20
2023-05-14T10:07:41.747Z,22.00
2023-05-14T10:10:16.991Z,21.60
2023-05-14T10:12:58.661Z,21.70
2023-05-14T10:15:38.244Z,21.50
2023-05-14T10:18:13.668Z,22.40
2023-05-14T10:20:41.637Z,22.40
2023-05-14T10:23:09.081Z,22.70
2023-05-14T10:25:37.651Z,23.30
2023-05-14T10:28:06.254Z,23.40
2023-05-14T10:30:33.433Z,23.30
2023-05-14T10:33:16.548Z,23.40
2023-05-14T10:36:02.405Z,23.20
2023-05-14T10:38:32.860Z,23.30
2023-05-14T10:41:03.978Z,22.50
2023-05-14T10:43:36.934Z,22.20
2023-05-14T10:46:04.541Z,22.40
2023-05-14T10:48:33.758Z,21.90
2023-05-14T10:51:02.901Z,22.10
2023-05-14T10:53:38.617Z,22.00
2023-05-14T10:56:14.318Z,21.70
2023-05-14T10:58:45.956Z,21.60
2023-05-14T11:01:14.992Z,21.50
2023-05-14T11:03:45.691Z,21.30
2023-05-14T11:06:15.930Z,21.80
2023-05-14T11:08:44.697Z,21.40
2023-05-14T11:11:13.401Z,21.40
2023-05-14T11:13:43.016Z,21.30
2023-05-14T11:18:42.013Z,21.60
2023-05-14T11:21:09.529Z,21.70
2023-05-14T11:23:36.794Z,21.50
2023-05-14T11:26:04.387Z,21.60
2023-05-14T11:28:31.525Z,21.90
2023-05-14T11:30:59.224Z,22.30
2023-05-14T11:33:28.239Z,22.50
2023-05-14T11:35:58.533Z,22.70
2023-05-14T11:38:25.771Z,22.40
2023-05-14T11:40:58.552Z,22.40
2023-05-14T11:43:29.230Z,22.80
2023-05-14T11:45:57.021Z,23.10
2023-05-14T11:48:24.594Z,23.70
2023-05-14T11:50:53.179Z,23.00
2023-05-14T11:53:31.243Z,23.30
2023-05-14T11:55:58.479Z,23.00
2023-05-14T11:58:26.197Z,24.00
2023-05-14T12:00:55.746Z,24.10
2023-05-14T12:03:26.259Z,24.10
2023-05-14T12:05:59.643Z,24.30
2023-05-14T12:08:29.264Z,24.60
2023-05-14T12:10:58.814Z,24.10
2023-05-14T12:13:28.431Z,24.90
2023-05-14T12:15:59.387Z,24.70
2023-05-14T12:18:29.388Z,24.70
2023-05-14T12:21:02.512Z,24.60
2023-05-14T12:23:31.788Z,24.50
2023-05-14T12:26:08.290Z,24.50
2023-05-14T12:28:38.850Z,25.10
2023-05-14T12:31:06.507Z,26.00
2023-05-14T12:33:33.905Z,26.30
2023-05-14T12:36:17.555Z,26.60
2023-05-14T12:38:49.083Z,26.20
2023-05-14T12:41:17.374Z,27.00
2023-05-14T12:43:44.849Z,28.60
2023-05-14T12:46:11.929Z,31.00
2023-05-14T12:48:39.046Z,32.00
2023-05-14T12:51:06.648Z,33.30
2023-05-14T12:53:35.312Z,31.90
2023-05-14T12:56:02.578Z,29.60
2023-05-14T12:58:30.028Z,30.60
2023-05-14T13:00:57.151Z,30.00
2023-05-14T13:03:24.420Z,30.00
2023-05-14T13:05:52.817Z,30.00
2023-05-14T13:08:21.681Z,29.20
2023-05-14T13:10:48.702Z,27.80
2023-05-14T13:13:16.286Z,27.70
2023-05-14T13:15:43.453Z,26.40
2023-05-14T13:18:10.546Z,27.00
2023-05-14T13:20:37.654Z,27.60
2023-05-14T13:23:04.790Z,28.70
2023-05-14T13:25:31.845Z,27.70
2023-05-14T13:27:59.110Z,27.00
2023-05-14T13:30:26.188Z,26.40
2023-05-14T13:32:53.415Z,25.80
2023-05-14T13:35:20.660Z,25.30
2023-05-14T13:37:47.760Z,25.10
2023-05-14T13:40:14.816Z,24.90
2023-05-14T13:42:41.900Z,24.40
2023-05-14T13:45:09.712Z,24.20
2023-05-14T13:47:36.857Z,23.90
2023-05-14T13:50:04.308Z,23.90
2023-05-14T13:52:31.637Z,24.10
2023-05-14T13:54:58.795Z,23.90
2023-05-14T13:57:26.495Z,23.60
2023-05-14T13:59:53.576Z,23.00
2023-05-14T14:02:20.898Z,22.80
2023-05-14T14:04:49.408Z,22.50
2023-05-14T14:07:16.615Z,22.10
2023-05-14T14:09:45.161Z,21.80
2023-05-14T14:12:12.258Z,21.50
2023-05-14T14:14:42.245Z,21.20
2023-05-14T14:17:09.539Z,20.90
2023-05-14T14:19:36.849Z,21.00
2023-05-14T14:22:04.380Z,21.30
2023-05-14T14:24:31.745Z,21.70
2023-05-14T14:26:58.845Z,22.50
2023-05-14T14:29:25.860Z,22.80
2023-05-14T14:31:53.037Z,22.50
2023-05-14T14:34:21.000Z,22.30
2023-05-14T14:36:48.030Z,22.80
2023-05-14T14:39:15.111Z,23.50
2023-05-14T14:41:42.225Z,23.90
2023-05-14T14:44:09.338Z,23.80
2023-05-14T14:46:36.469Z,24.20
2023-05-14T14:49:03.577Z,23.40
2023-05-14T14:51:31.404Z,23.20
2023-05-14T14:53:58.622Z,22.70
2023-05-14T14:56:27.296Z,22.60
2023-05-14T14:58:54.360Z,22.50
2023-05-14T15:01:22.868Z,22.40
2023-05-14T15:03:50.117Z,22.20
2023-05-14T15:06:17.301Z,22.60
2023-05-14T15:08:44.357Z,22.60
2023-05-14T15:11:11.626Z,22.50
2023-05-14T15:13:40.123Z,22.40
2023-05-14T15:16:07.737Z,22.30
2023-05-14T15:18:35.042Z,22.20
2023-05-14T15:21:02.310Z,21.80
2023-05-14T15:23:29.398Z,21.40
2023-05-14T15:25:56.499Z,21.10
2023-05-14T15:28:23.737Z,21.20
2023-05-14T15:30:50.765Z,20.90
2023-05-14T15:33:19.424Z,20.80
2023-05-14T15:35:46.946Z,20.50
2023-05-14T15:38:14.134Z,20.40
2023-05-14T15:40:41.646Z,20.50
2023-05-14T15:43:08.879Z,20.40
2023-05-14T15:45:36.552Z,20.40
2023-05-14T15:48:03.936Z,20.20
2023-05-14T15:50:31.125Z,20.10
2023-05-14T15:52:58.231Z,20.10
2023-05-14T15:55:25.423Z,20.10
2023-05-14T15:57:52.458Z,20.20
2023-05-14T16:00:20.328Z,20.20
2023-05-14T16:02:47.565Z,20.10
2023-05-14T16:05:15.368Z,20.00
2023-05-14T16:07:43.417Z,20.00
2023-05-14T16:10:10.972Z,20.00
2023-05-14T16:12:38.068Z,19.70
2023-05-14T16:15:07.890Z,19.70
2023-05-14T16:17:35.055Z,19.90
2023-05-14T16:20:02.403Z,19.90
2023-05-14T16:22:31.920Z,19.70
2023-05-14T16:25:00.671Z,19.70
2023-05-14T16:27:29.752Z,19.50
2023-05-14T16:29:56.779Z,19.30
2023-05-14T16:32:25.309Z,18.90
2023-05-14T16:34:52.597Z,18.60
2023-05-14T16:37:22.817Z,18.50
2023-05-14T16:39:49.964Z,18.30
2023-05-14T16:42:17.089Z,18.20
2023-05-14T16:44:44.332Z,18.30
2023-05-14T16:47:11.660Z,18.40
2023-05-14T16:49:38.731Z,18.40
2023-05-14T16:52:06.681Z,18.40
2023-05-14T16:54:33.689Z,18.20
2023-05-14T16:57:00.769Z,17.90
2023-05-14T16:59:27.934Z,17.80
2023-05-14T17:01:55.097Z,17.70
2023-05-14T17:04:24.963Z,17.90
2023-05-14T17:06:52.203Z,17.60
2023-05-14T17:09:19.569Z,17.70
2023-05-14T17:11:46.733Z,17.50
2023-05-14T17:14:13.783Z,17.50
2023-05-14T17:16:42.383Z,17.50
2023-05-14T17:19:09.569Z,17.60
2023-05-14T17:21:36.696Z,17.50
2023-05-14T17:24:03.896Z,17.40
2023-05-14T17:26:30.990Z,17.50
2023-05-14T17:28:58.090Z,17.60
2023-05-14T17:31:25.252Z,17.60
2023-05-14T17:33:52.347Z,17.50
2023-05-14T17:36:19.472Z,17.30
2023-05-14T17:38:47.170Z,17.40
2023-05-14T17:41:14.179Z,17.20
2023-05-14T17:43:41.236Z,17.00
2023-05-14T17:46:08.350Z,17.10
2023-05-14T17:48:35.425Z,17.00
2023-05-14T17:51:02.489Z,17.10
2023-05-14T17:53:29.683Z,17.20
2023-05-14T17:55:56.826Z,17.10
2023-05-14T17:58:25.124Z,17.20
2023-05-14T18:00:52.186Z,17.10
2023-05-14T18:03:20.407Z,17.10
2023-05-14T18:05:47.661Z,16.90
2023-05-14T18:08:14.924Z,16.90
2023-05-14T18:10:41.990Z,16.80
2023-05-14T18:13:09.054Z,16.90
2023-05-14T18:15:37.035Z,16.80
2023-05-14T18:18:04.697Z,16.80
2023-05-14T18:20:33.511Z,16.80
2023-05-14T18:23:02.982Z,16.70
2023-05-14T18:25:30.142Z,16.60
2023-05-14T18:27:57.264Z,16.50
2023-05-14T18:30:24.303Z,16.50
2023-05-14T18:32:51.559Z,16.40
2023-05-14T18:35:18.786Z,16.30
2023-05-14T18:37:46.062Z,16.20
2023-05-14T18:40:16.875Z,16.20
2023-05-14T18:42:45.621Z,16.10
2023-05-14T18:45:12.723Z,16.00
2023-05-14T18:47:40.089Z,15.90
2023-05-14T18:50:08.500Z,15.80
2023-05-14T18:52:35.771Z,15.80
2023-05-14T18:55:03.109Z,15.70
2023-05-14T18:57:32.204Z,15.70
2023-05-14T19:00:02.102Z,15.60
2023-05-14T19:02:29.277Z,15.50
2023-05-14T19:04:56.476Z,15.50
2023-05-14T19:07:23.648Z,15.40
2023-05-14T19:09:51.037Z,15.30
2023-05-14T19:12:18.207Z,15.20
2023-05-14T19:14:45.401Z,15.20
2023-05-14T19:17:12.506Z,15.20
2023-05-14T19:19:39.642Z,15.10
2023-05-14T19:22:06.980Z,15.00
2023-05-14T19:24:34.185Z,14.90
2023-05-14T19:27:01.463Z,14.90
2023-05-14T19:29:28.690Z,14.70
2023-05-14T19:31:56.094Z,14.60
2023-05-14T19:34:23.562Z,14.60
2023-05-14T19:36:51.004Z,14.60
2023-05-14T19:39:18.223Z,14.60
2023-05-14T19:41:45.464Z,14.50
2023-05-14T19:44:12.549Z,14.40
2023-05-14T19:46:40.656Z,14.30
2023-05-14T19:49:07.807Z,14.30
2023-05-14T19:51:34.876Z,14.20
2023-05-14T19:54:02.055Z,14.20
2023-05-14T19:56:29.242Z,14.10
2023-05-14T19:58:56.371Z,14.00
2023-05-14T20:01:23.536Z,14.00
2023-05-14T20:03:50.633Z,13.90
2023-05-14T20:06:18.544Z,13.90
2023-05-14T20:08:45.752Z,13.80
2023-05-14T20:11:13.064Z,13.70
2023-05-14T20:13:40.165Z,13.70
2023-05-14T20:16:07.464Z,13.60
2023-05-14T20:18:34.675Z,13.60
2023-05-14T20:21:01.878Z,13.50
2023-05-14T20:23:28.930Z,13.50
2023-05-14T20:25:56.028Z,13.50
2023-05-14T20:28:23.151Z,13.40
2023-05-14T20:30:50.270Z,13.40
2023-05-14T20:33:17.438Z,13.40
2023-05-14T20:35:44.816Z,13.30
2023-05-14T20:38:13.466Z,13.30
2023-05-14T20:40:40.708Z,13.30
2023-05-14T20:43:07.752Z,13.30
2023-05-14T20:45:34.793Z,13.20
2023-05-14T20:48:02.001Z,13.10
2023-05-14T20:50:29.157Z,13.00
2023-05-14T20:52:56.266Z,12.90
2023-05-14T20:55:23.828Z,12.80
2023-05-14T20:57:51.148Z,12.80
2023-05-14T21:00:19.106Z,12.70
2023-05-14T21:02:46.609Z,12.70
2023-05-14T21:05:14.088Z,12.60
2023-05-14T21:07:41.290Z,12.60
2023-05-14T21:10:11.693Z,12.50
2023-05-14T21:12:43.490Z,12.50
2023-05-14T21:15:12.837Z,12.50
2023-05-14T21:17:43.029Z,12.50
2023-05-14T21:20:16.590Z,12.50
2023-05-14T21:22:44.046Z,12.50
2023-05-14T21:25:11.375Z,12.50
2023-05-14T21:27:38.808Z,12.50
2023-05-14T21:30:07.074Z,12.50
2023-05-14T21:32:34.325Z,12.40
2023-05-14T21:35:01.904Z,12.30
2023-05-14T21:37:29.060Z,12.30
2023-05-14T21:39:56.556Z,12.30
2023-05-14T21:42:23.797Z,12.30
2023-05-14T21:44:51.001Z,12.30
2023-05-14T21:47:43.502Z,12.30
2023-05-14T21:50:11.179Z,12.40
2023-05-14T21:52:39.199Z,12.40
2023-05-14T21:55:06.605Z,12.40
2023-05-14T21:57:37.585Z,12.40
2023-05-14T22:00:10.552Z,12.30
2023-05-14T22:02:40.983Z,12.30
2023-05-14T22:05:08.463Z,12.30
2023-05-14T22:07:36.150Z,12.20
2023-05-14T22:10:03.975Z,12.20
2023-05-14T22:12:34.095Z,12.20
2023-05-14T22:15:01.763Z,12.20
2023-05-14T22:17:29.156Z,12.30
2023-05-14T22:19:56.589Z,12.30
2023-05-14T22:22:24.019Z,12.40
2023-05-14T22:24:51.208Z,12.50
2023-05-14T22:27:18.667Z,12.40
2023-05-14T22:29:45.937Z,12.40
2023-05-14T22:32:13.055Z,12.40
2023-05-14T22:34:40.108Z,12.50
2023-05-14T22:37:07.291Z,12.60
2023-05-14T22:39:34.639Z,12.60
2023-05-14T22:42:01.734Z,12.60
2023-05-14T22:44:29.962Z,12.80
2023-05-14T22:46:57.488Z,12.70
2023-05-14T22:49:24.706Z,12.80
2023-05-14T22:51:54.396Z,12.80
2023-05-14T22:54:21.830Z,12.90
2023-05-14T22:56:49.069Z,12.90
2023-05-14T22:59:16.155Z,12.90
2023-05-14T23:01:43.568Z,12.90
2023-05-14T23:04:10.820Z,12.90
2023-05-14T23:06:37.870Z,12.90
2023-05-14T23:09:04.976Z,12.90
2023-05-14T23:11:31.993Z,12.90
2023-05-14T23:13:59.046Z,13.00
2023-05-14T23:16:26.274Z,13.10
2023-05-14T23:18:53.488Z,13.00
2023-05-14T23:21:20.707Z,13.00
2023-05-14T23:23:48.589Z,13.10
2023-05-14T23:26:15.694Z,13.00
2023-05-14T23:28:42.801Z,13.00
2023-05-14T23:31:09.891Z,12.90
2023-05-14T23:33:37.076Z,13.00
2023-05-14T23:36:04.344Z,13.00
2023-05-14T23:38:31.904Z,13.00
2023-05-14T23:40:58.924Z,12.90
2023-05-14T23:43:26.119Z,13.00
2023-05-14T23:45:53.360Z,13.00
2023-05-14T23:48:20.696Z,12.90
2023-05-14T23:50:47.783Z,12.80
2023-05-14T23:53:14.824Z,12.90
2023-05-14T23:55:41.911Z,13.00
2023-05-14T23:58:09.078Z,13.00
